Time;durP1;ratioP1;P1;durP2;ratioP2;P2;SDS_P1;SDS_P2;PMS_P1;PMS_P2;Temp;Humidity;BMP_temperature;BMP_pressure;BME280_temperature;BME280_humidity;BME280_pressure;Samples;Min_cycle;Max_cycle;Signal;HPM_P1;HPM_P2
2022/05/21 00:00:24;;;;;;;11.05;6.47;;;12.90;99.90;;;;;;5060018;28;20095;-68
2022/05/21 00:02:50;;;;;;;17.52;6.40;;;13.00;99.90;;;;;;5065708;28;20021;-69
2022/05/21 00:05:18;;;;;;;13.15;7.22;;;12.70;99.90;;;;;;5063750;28;20127;-69
2022/05/21 00:07:44;;;;;;;11.05;6.78;;;12.60;99.90;;;;;;5048286;28;20025;-69
2022/05/21 00:10:14;;;;;;;13.70;7.50;;;12.60;99.90;;;;;;5058406;28;20025;-70
2022/05/21 00:12:41;;;;;;;18.48;6.07;;;12.50;99.90;;;;;;5056499;28;20032;-69
2022/05/21 00:15:09;;;;;;;12.85;6.97;;;12.50;99.90;;;;;;5053551;28;20028;-69
2022/05/21 00:17:34;;;;;;;12.70;7.45;;;12.50;99.90;;;;;;5053350;28;20079;-68
2022/05/21 00:20:00;;;;;;;16.02;7.72;;;12.40;99.90;;;;;;5054333;28;20025;-69
2022/05/21 00:22:26;;;;;;;16.73;7.00;;;12.30;99.90;;;;;;5058345;28;20596;-69
2022/05/21 00:24:52;;;;;;;15.63;7.65;;;12.30;99.90;;;;;;5055314;28;20029;-68
2022/05/21 00:27:18;;;;;;;19.92;6.78;;;12.30;99.90;;;;;;5055394;28;20028;-69
2022/05/21 00:29:43;;;;;;;16.70;8.38;;;12.40;99.90;;;;;;5061479;28;20399;-69
2022/05/21 00:32:09;;;;;;;13.77;7.55;;;12.40;99.90;;;;;;5061045;28;20013;-68
2022/05/21 00:34:35;;;;;;;16.48;7.97;;;12.40;99.90;;;;;;5062139;28;20510;-68
2022/05/21 00:37:01;;;;;;;17.38;7.75;;;12.40;99.90;;;;;;5060019;28;20402;-68
2022/05/21 00:39:27;;;;;;;16.65;7.95;;;12.40;99.90;;;;;;5034973;28;20453;-68
2022/05/21 00:41:53;;;;;;;15.65;7.03;;;12.40;99.90;;;;;;5055380;28;20494;-69
2022/05/21 00:44:19;;;;;;;12.70;7.22;;;12.30;99.90;;;;;;5054848;28;20117;-69
2022/05/21 00:46:47;;;;;;;14.80;7.65;;;12.40;99.90;;;;;;5035873;28;20525;-68
2022/05/21 00:49:25;;;;;;;16.55;7.70;;;12.40;99.90;;;;;;5055491;28;20025;-68
2022/05/21 00:52:10;;;;;;;19.77;7.70;;;12.50;99.90;;;;;;5054951;28;20071;-68
2022/05/21 00:54:45;;;;;;;15.32;7.63;;;12.50;99.90;;;;;;5051050;28;20027;-69
2022/05/21 00:57:14;;;;;;;12.27;7.35;;;12.50;99.90;;;;;;5032405;28;20036;-68
2022/05/21 00:59:47;;;;;;;19.55;8.77;;;12.60;99.90;;;;;;5052720;28;20017;-68
2022/05/21 01:02:16;;;;;;;20.50;8.07;;;12.50;99.90;;;;;;5053275;28;20071;-68
2022/05/21 01:04:44;;;;;;;15.85;7.40;;;12.60;99.90;;;;;;5052857;28;20030;-69
2022/05/21 01:07:12;;;;;;;16.65;9.07;;;12.60;99.90;;;;;;5054220;28;20029;-69
2022/05/21 01:09:39;;;;;;;15.43;8.10;;;12.60;99.90;;;;;;5050266;28;20021;-69
2022/05/21 01:12:06;;;;;;;12.95;7.22;;;12.60;99.90;;;;;;5052382;28;20033;-69
2022/05/21 01:14:32;;;;;;;15.63;8.55;;;12.50;99.90;;;;;;5059938;28;20108;-68
2022/05/21 01:17:00;;;;;;;15.82;7.65;;;12.50;99.90;;;;;;5052304;28;20104;-69
2022/05/21 01:19:26;;;;;;;17.48;7.85;;;12.40;99.90;;;;;;5055840;28;20075;-70
2022/05/21 01:21:51;;;;;;;15.85;8.23;;;12.40;99.90;;;;;;5052994;28;20049;-68
2022/05/21 01:24:17;;;;;;;18.95;7.72;;;12.40;99.90;;;;;;5053805;28;20087;-68
2022/05/21 01:26:43;;;;;;;19.95;8.20;;;12.40;99.90;;;;;;5047519;28;20033;-68
2022/05/21 01:29:22;;;;;;;19.73;8.13;;;12.50;99.90;;;;;;5048990;28;20036;-69
2022/05/21 01:31:50;;;;;;;12.50;6.85;;;12.50;99.90;;;;;;5048513;28;20025;-69
2022/05/21 01:34:17;;;;;;;15.07;7.28;;;12.50;99.90;;;;;;5057710;28;20028;-69
2022/05/21 01:36:42;;;;;;;13.77;7.15;;;12.50;99.90;;;;;;5056779;28;20494;-68
2022/05/21 01:39:08;;;;;;;13.98;6.70;;;12.50;99.90;;;;;;5050617;28;20036;-69
2022/05/21 01:41:33;;;;;;;15.77;6.65;;;12.50;99.90;;;;;;5053795;28;20025;-69
2022/05/21 01:46:43;;;;;;;16.17;6.70;;;12.40;99.90;;;;;;5052989;28;20043;-69
2022/05/21 01:49:09;;;;;;;14.25;5.80;;;12.40;99.90;;;;;;5051742;28;20033;-69
2022/05/21 01:51:34;;;;;;;13.15;6.43;;;12.40;99.90;;;;;;5051084;28;20110;-69
2022/05/21 01:54:00;;;;;;;13.40;5.82;;;12.40;99.90;;;;;;5048262;28;20411;-69
2022/05/21 01:56:25;;;;;;;13.52;5.93;;;12.30;99.90;;;;;;5054832;28;20028;-69
2022/05/21 01:58:51;;;;;;;10.15;5.43;;;12.40;99.90;;;;;;5048425;28;20017;-68
2022/05/21 02:01:17;;;;;;;13.05;5.25;;;12.40;99.90;;;;;;5050430;28;20067;-69
2022/05/21 02:03:42;;;;;;;11.25;4.72;;;12.40;99.90;;;;;;5051338;28;20036;-67
2022/05/21 02:06:08;;;;;;;9.90;5.28;;;12.40;99.90;;;;;;5049203;28;20035;-69
2022/05/21 02:08:35;;;;;;;9.55;4.85;;;12.40;99.90;;;;;;5048214;28;20025;-69
2022/05/21 02:11:00;;;;;;;9.13;4.60;;;12.50;99.90;;;;;;5038172;28;20065;-68
2022/05/21 02:13:29;;;;;;;10.15;4.90;;;12.40;99.90;;;;;;5049468;28;20048;-69
2022/05/21 02:15:55;;;;;;;11.85;4.13;;;12.40;99.90;;;;;;5055405;28;20093;-69
2022/05/21 02:18:21;;;;;;;13.05;3.92;;;12.40;99.90;;;;;;5031903;28;20449;-68
2022/05/21 02:20:48;;;;;;;10.52;3.25;;;12.40;99.90;;;;;;5052463;28;20028;-68
2022/05/21 02:23:14;;;;;;;11.23;3.83;;;12.40;99.90;;;;;;5051625;28;20028;-69
2022/05/21 02:25:40;;;;;;;7.75;3.78;;;12.40;99.90;;;;;;5030452;28;20047;-70
2022/05/21 02:28:06;;;;;;;9.07;3.17;;;12.40;99.90;;;;;;5051340;28;20046;-68
2022/05/21 02:30:32;;;;;;;6.45;2.50;;;12.30;99.90;;;;;;5050224;28;20028;-68
2022/05/21 02:32:57;;;;;;;7.57;2.80;;;12.30;99.90;;;;;;5050594;28;20074;-69
2022/05/21 02:35:23;;;;;;;4.95;2.42;;;12.30;99.90;;;;;;5049951;28;20025;-70
2022/05/21 02:40:33;;;;;;;5.18;1.70;;;12.40;99.90;;;;;;5051550;28;20138;-69
2022/05/21 02:42:58;;;;;;;7.93;2.25;;;12.40;99.90;;;;;;5053391;28;20569;-69
2022/05/21 02:45:26;;;;;;;2.38;1.95;;;12.40;99.90;;;;;;5031627;28;20063;-69
2022/05/21 02:47:53;;;;;;;3.25;1.58;;;12.40;99.90;;;;;;5049197;28;20012;-68
2022/05/21 02:50:28;;;;;;;4.95;2.22;;;12.30;99.90;;;;;;5048398;28;20064;-69
2022/05/21 02:52:54;;;;;;;5.53;1.73;;;12.30;99.90;;;;;;5049198;28;20107;-69
2022/05/21 02:55:20;;;;;;;7.72;1.67;;;12.20;99.90;;;;;;5053355;28;20103;-68
2022/05/21 02:57:46;;;;;;;9.13;2.58;;;12.20;99.90;;;;;;5047936;28;20029;-69
2022/05/21 03:00:17;;;;;;;3.30;1.48;;;12.20;99.90;;;;;;5050830;28;20021;-69
2022/05/21 03:02:42;;;;;;;7.25;1.75;;;12.20;99.90;;;;;;5054310;28;20033;-69
2022/05/21 03:05:09;;;;;;;4.63;1.80;;;12.20;99.90;;;;;;5058235;28;20394;-69
2022/05/21 03:07:44;;;;;;;4.60;1.60;;;12.10;99.90;;;;;;5044788;28;20522;-69
2022/05/21 03:10:20;;;;;;;4.45;1.88;;;12.10;99.90;;;;;;5048605;28;20051;-69
2022/05/21 03:12:59;;;;;;;3.97;1.65;;;12.10;99.90;;;;;;5050939;28;20035;-69
2022/05/21 03:15:34;;;;;;;12.88;1.95;;;12.00;99.90;;;;;;5053332;28;20501;-69
2022/05/21 03:18:06;;;;;;;3.13;1.65;;;12.00;99.90;;;;;;5052121;28;20028;-70
2022/05/21 03:20:32;;;;;;;6.22;1.20;;;12.10;99.90;;;;;;5051036;28;20036;-68
2022/05/21 03:22:58;;;;;;;6.40;1.42;;;12.20;99.90;;;;;;5036420;28;20032;-69
2022/05/21 03:25:24;;;;;;;5.28;1.25;;;12.20;99.90;;;;;;5043625;28;20123;-70
2022/05/21 03:27:50;;;;;;;4.70;1.50;;;12.30;99.90;;;;;;5055554;28;20032;-69
2022/05/21 03:30:18;;;;;;;7.93;1.30;;;12.40;99.90;;;;;;5048068;28;20104;-69
2022/05/21 03:32:44;;;;;;;7.35;1.45;;;12.50;99.90;;;;;;5047984;28;20040;-69
2022/05/21 03:35:12;;;;;;;8.60;0.90;;;12.50;99.90;;;;;;5056098;28;20391;-69
2022/05/21 03:37:38;;;;;;;8.10;1.48;;;12.60;99.90;;;;;;5050818;28;20036;-68
2022/05/21 03:40:06;;;;;;;5.53;1.08;;;12.70;99.90;;;;;;5047928;28;20024;-69
2022/05/21 03:42:31;;;;;;;4.38;1.00;;;12.70;99.90;;;;;;5050295;28;20024;-69
2022/05/21 03:44:57;;;;;;;7.00;1.38;;;12.70;99.90;;;;;;5050988;28;20028;-69
2022/05/21 03:47:22;;;;;;;4.18;1.17;;;12.80;99.90;;;;;;5041849;28;20037;-68
2022/05/21 03:49:48;;;;;;;5.55;1.20;;;12.80;99.90;;;;;;5053832;28;20048;-68
2022/05/21 03:52:13;;;;;;;3.72;1.25;;;12.80;99.90;;;;;;5053416;28;20021;-69
2022/05/21 03:54:39;;;;;;;5.63;1.08;;;12.90;99.90;;;;;;5048293;28;20467;-68
2022/05/21 03:57:05;;;;;;;9.27;1.40;;;12.90;99.90;;;;;;5053608;28;20029;-69
2022/05/21 03:59:32;;;;;;;3.58;1.30;;;13.00;99.90;;;;;;5053797;28;20123;-68
2022/05/21 04:01:58;;;;;;;6.95;1.20;;;13.00;99.90;;;;;;5035435;28;20033;-68
2022/05/21 04:04:23;;;;;;;6.35;1.13;;;13.00;99.90;;;;;;5054532;28;20090;-68
2022/05/21 04:06:49;;;;;;;9.68;1.48;;;13.00;99.90;;;;;;5052961;28;20033;-68
2022/05/21 04:09:15;;;;;;;3.20;0.95;;;13.00;99.90;;;;;;5048792;28;20040;-67
2022/05/21 04:11:40;;;;;;;5.63;1.20;;;13.00;99.90;;;;;;5055270;28;20035;-67
2022/05/21 04:14:07;;;;;;;2.13;1.15;;;13.00;99.90;;;;;;5052695;28;20709;-68
2022/05/21 04:16:33;;;;;;;7.93;1.45;;;13.00;99.90;;;;;;5046680;28;20016;-68
2022/05/21 04:18:59;;;;;;;2.95;0.90;;;13.00;99.90;;;;;;5046867;28;20044;-68
2022/05/21 04:21:26;;;;;;;7.32;0.77;;;13.00;99.90;;;;;;5035909;28;20047;-67
2022/05/21 04:23:52;;;;;;;11.77;1.10;;;13.00;99.90;;;;;;5075739;22;20063;-62
2022/05/21 04:26:17;;;;;;;2.33;1.10;;;13.00;99.90;;;;;;5089377;28;20016;-63
2022/05/21 04:28:43;;;;;;;4.57;1.13;;;13.00;99.90;;;;;;5089274;28;20520;-60
2022/05/21 04:31:08;;;;;;;4.22;1.00;;;13.00;99.90;;;;;;5091600;28;20030;-61
2022/05/21 04:33:34;;;;;;;6.03;1.58;;;13.00;99.90;;;;;;5082811;28;20108;-62
2022/05/21 04:36:18;;;;;;;7.65;1.60;;;13.00;99.90;;;;;;5070098;28;20029;-62
2022/05/21 04:38:44;;;;;;;9.57;1.60;;;13.00;99.90;;;;;;5071572;28;20032;-63
2022/05/21 04:41:10;;;;;;;7.68;1.10;;;13.00;99.90;;;;;;5070788;28;20027;-61
2022/05/21 04:43:36;;;;;;;4.60;1.15;;;13.00;99.90;;;;;;5068158;28;20036;-61
2022/05/21 04:46:02;;;;;;;3.22;0.77;;;13.00;99.90;;;;;;5066647;28;20040;-62
2022/05/21 04:48:28;;;;;;;5.00;1.38;;;13.00;99.90;;;;;;5068605;28;20482;-62
2022/05/21 04:51:02;;;;;;;1.42;0.90;;;13.00;99.90;;;;;;5069937;28;20075;-62
2022/05/21 04:53:28;;;;;;;7.38;1.10;;;13.00;99.90;;;;;;5070843;28;20391;-62
2022/05/21 04:55:54;;;;;;;3.15;0.90;;;13.10;99.90;;;;;;5069695;28;20048;-62
2022/05/21 04:58:19;;;;;;;1.75;0.90;;;13.10;99.90;;;;;;5071054;28;20048;-62
2022/05/21 05:00:45;;;;;;;2.15;0.80;;;13.10;99.90;;;;;;5068266;28;20028;-61
2022/05/21 05:03:16;;;;;;;4.70;1.00;;;13.10;99.90;;;;;;5066566;28;20024;-61
2022/05/21 05:05:44;;;;;;;5.00;1.05;;;13.20;99.90;;;;;;5067710;28;21085;-61
2022/05/21 05:08:10;;;;;;;3.83;1.08;;;13.20;99.90;;;;;;5070081;28;20025;-62
2022/05/21 05:10:36;;;;;;;2.13;0.90;;;13.20;99.90;;;;;;5066379;28;20096;-61
2022/05/21 05:13:02;;;;;;;5.85;1.10;;;13.30;99.90;;;;;;5070329;28;20116;-62
2022/05/21 05:15:28;;;;;;;12.75;1.63;;;13.30;99.90;;;;;;5069629;28;20055;-62
2022/05/21 05:18:01;;;;;;;4.78;1.00;;;13.30;99.90;;;;;;5067427;28;20493;-60
2022/05/21 05:20:26;;;;;;;7.65;1.15;;;13.30;99.90;;;;;;5066012;28;20032;-61
2022/05/21 05:22:52;;;;;;;5.18;1.10;;;13.40;99.90;;;;;;5068441;28;20016;-62
2022/05/21 05:25:18;;;;;;;3.13;1.23;;;13.40;99.90;;;;;;5070789;28;20025;-62
2022/05/21 05:27:47;;;;;;;6.65;1.30;;;13.40;99.90;;;;;;5069419;28;20405;-63
2022/05/21 05:30:13;;;;;;;3.58;1.33;;;13.40;99.90;;;;;;5067151;28;20399;-61
2022/05/21 05:32:39;;;;;;;5.93;1.63;;;13.40;99.90;;;;;;5069064;28;20482;-61
2022/05/21 05:35:06;;;;;;;6.97;1.50;;;13.40;99.90;;;;;;5070143;28;20032;-61
2022/05/21 05:37:31;;;;;;;4.50;1.52;;;13.40;99.90;;;;;;5067959;28;20119;-61
2022/05/21 05:39:57;;;;;;;6.13;1.40;;;13.50;99.90;;;;;;5067497;28;20103;-62
2022/05/21 05:42:23;;;;;;;5.85;1.73;;;13.50;99.90;;;;;;5068402;28;20107;-62
2022/05/21 05:44:49;;;;;;;11.43;2.00;;;13.50;99.90;;;;;;5070599;28;20092;-63
2022/05/21 05:47:14;;;;;;;9.15;1.58;;;13.50;99.90;;;;;;5068668;28;20024;-64
2022/05/21 05:49:40;;;;;;;5.90;1.40;;;13.50;99.90;;;;;;5067619;28;20047;-62
2022/05/21 05:52:06;;;;;;;7.70;1.67;;;13.50;99.90;;;;;;5070787;28;20081;-63
2022/05/21 05:54:35;;;;;;;7.72;1.50;;;13.60;99.90;;;;;;5065097;28;20024;-61
2022/05/21 05:57:02;;;;;;;4.55;1.48;;;13.70;99.90;;;;;;5069487;28;20021;-62
2022/05/21 06:04:55;;;;;;;4.10;1.65;;;13.80;99.90;;;;;;5070088;28;20102;-61
2022/05/21 06:07:21;;;;;;;4.68;1.40;;;13.90;99.90;;;;;;5066198;28;20433;-62
2022/05/21 06:09:47;;;;;;;4.45;1.65;;;14.00;99.90;;;;;;5065500;28;20032;-62
2022/05/21 06:12:14;;;;;;;5.80;1.20;;;14.00;99.90;;;;;;5068585;28;20058;-62
2022/05/21 06:14:41;;;;;;;10.80;1.70;;;14.10;99.90;;;;;;5065472;28;20777;-62
2022/05/21 06:17:07;;;;;;;10.13;2.65;;;14.10;99.90;;;;;;5068224;28;20021;-63
2022/05/21 06:19:33;;;;;;;5.45;1.83;;;14.10;99.90;;;;;;5068114;28;20032;-62
2022/05/21 06:22:00;;;;;;;12.27;2.22;;;14.20;99.90;;;;;;5066363;28;20040;-63
2022/05/21 06:24:26;;;;;;;6.05;2.15;;;14.20;99.90;;;;;;5070361;28;20070;-62
2022/05/21 06:26:52;;;;;;;5.63;2.20;;;14.20;99.90;;;;;;5068588;28;20036;-63
2022/05/21 06:29:17;;;;;;;6.32;1.77;;;14.20;99.90;;;;;;5068366;28;20108;-61
2022/05/21 06:31:43;;;;;;;11.77;3.47;;;14.30;99.90;;;;;;5064211;28;20074;-62
2022/05/21 06:34:09;;;;;;;7.68;1.92;;;14.10;99.90;;;;;;5069413;28;20512;-61
2022/05/21 06:36:35;;;;;;;6.80;2.00;;;14.10;99.90;;;;;;5069741;28;20016;-63
2022/05/21 06:39:00;;;;;;;4.20;1.90;;;14.20;99.90;;;;;;5066980;28;20055;-62
2022/05/21 06:41:31;;;;;;;12.50;2.05;;;14.30;99.90;;;;;;5069493;28;20119;-63
2022/05/21 06:43:57;;;;;;;6.72;2.08;;;14.20;99.90;;;;;;5063592;28;20032;-61
2022/05/21 06:46:24;;;;;;;12.15;2.50;;;14.20;99.90;;;;;;5069149;28;20247;-59
2022/05/21 06:48:49;;;;;;;10.98;2.60;;;14.20;99.90;;;;;;5069471;28;20108;-63
2022/05/21 06:51:15;;;;;;;4.65;2.30;;;14.20;99.90;;;;;;5070867;28;20107;-63
2022/05/21 06:53:41;;;;;;;8.82;2.63;;;14.10;99.90;;;;;;5049717;28;20649;-64
2022/05/21 06:56:13;;;;;;;9.07;2.85;;;14.10;99.90;;;;;;5068331;28;20028;-63
2022/05/21 06:58:39;;;;;;;18.35;2.60;;;14.20;99.90;;;;;;5067703;28;20031;-63
2022/05/21 07:01:05;;;;;;;7.50;2.47;;;14.30;99.90;;;;;;5069433;28;20029;-63
2022/05/21 07:03:31;;;;;;;7.68;2.63;;;14.30;99.90;;;;;;5069587;28;20028;-63
2022/05/21 07:08:41;;;;;;;12.52;1.88;;;14.20;99.90;;;;;;5068684;28;20039;-62
2022/05/21 07:11:07;;;;;;;12.05;3.03;;;14.20;99.90;;;;;;5065676;28;20036;-63
2022/05/21 07:13:33;;;;;;;13.48;2.90;;;14.20;99.90;;;;;;5066823;28;20028;-63
2022/05/21 07:15:59;;;;;;;8.13;2.63;;;14.30;99.90;;;;;;5067884;28;20028;-62
2022/05/21 07:18:27;;;;;;;13.27;2.28;;;14.30;99.90;;;;;;5069504;28;20044;-63
2022/05/21 07:20:54;;;;;;;5.78;2.33;;;14.40;99.90;;;;;;5064078;28;20096;-63
2022/05/21 07:23:20;;;;;;;14.32;2.42;;;14.60;99.90;;;;;;5067526;28;20044;-63
2022/05/21 07:25:47;;;;;;;7.22;2.58;;;14.70;99.90;;;;;;5065551;28;20036;-61
2022/05/21 07:28:13;;;;;;;6.38;2.25;;;14.80;99.90;;;;;;5063451;28;20489;-63
2022/05/21 07:30:39;;;;;;;10.75;2.40;;;14.70;99.90;;;;;;5066981;28;20036;-61
2022/05/21 07:33:09;;;;;;;10.50;2.60;;;14.90;99.90;;;;;;5068111;28;20509;-60
2022/05/21 07:35:37;;;;;;;12.15;3.05;;;14.90;99.90;;;;;;5049153;28;20453;-62
2022/05/21 07:38:07;;;;;;;21.45;2.63;;;14.90;99.90;;;;;;5068081;28;20187;-63
2022/05/21 07:40:33;;;;;;;11.57;3.00;;;14.80;99.90;;;;;;5066746;28;20028;-63
2022/05/21 07:42:59;;;;;;;3.92;2.30;;;14.90;99.90;;;;;;5063843;28;20568;-62
2022/05/21 07:45:24;;;;;;;9.43;2.45;;;14.90;99.90;;;;;;5063602;28;20115;-62
2022/05/21 07:47:50;;;;;;;7.65;2.58;;;14.90;99.90;;;;;;5065627;28;20035;-63
2022/05/21 07:50:17;;;;;;;7.47;2.67;;;15.00;99.90;;;;;;5065497;28;20174;-64
2022/05/21 07:52:44;;;;;;;14.50;2.28;;;15.10;99.90;;;;;;5067294;28;20024;-63
2022/05/21 07:55:11;;;;;;;11.50;2.75;;;15.10;99.90;;;;;;5071979;28;20023;-62
2022/05/21 07:57:37;;;;;;;10.23;2.30;;;15.30;99.90;;;;;;5072179;28;20130;-63
2022/05/21 08:00:08;;;;;;;10.70;2.83;;;15.20;99.90;;;;;;5072742;28;20036;-63
2022/05/21 08:02:33;;;;;;;11.88;2.47;;;15.20;99.90;;;;;;5072580;28;20035;-61
2022/05/21 08:04:59;;;;;;;10.57;2.45;;;15.30;99.90;;;;;;5073117;28;20029;-62
2022/05/21 08:07:25;;;;;;;11.50;2.72;;;15.30;99.90;;;;;;5071495;28;20075;-63
2022/05/21 08:09:50;;;;;;;10.25;2.85;;;15.20;99.90;;;;;;5069585;28;20033;-62
2022/05/21 08:12:17;;;;;;;7.85;3.55;;;15.30;99.90;;;;;;5069196;28;20066;-61
2022/05/21 08:14:54;;;;;;;7.57;2.85;;;15.30;99.90;;;;;;5068192;28;20040;-63
2022/05/21 08:17:23;;;;;;;10.05;3.00;;;15.40;99.90;;;;;;5049681;28;20028;-63
2022/05/21 08:27:53;;;;;;;;;;;15.70;99.90;;;;;;5089931;28;20410;-63
2022/05/21 08:30:18;;;;;;;8.18;2.42;;;15.80;99.90;;;;;;5087422;28;20007;-63
2022/05/21 08:32:44;;;;;;;9.93;2.80;;;16.00;99.90;;;;;;5088344;28;20501;-63
2022/05/21 08:35:09;;;;;;;11.88;2.45;;;16.10;99.90;;;;;;5091037;28;20036;-64
2022/05/21 08:37:35;;;;;;;3.80;2.50;;;16.20;99.90;;;;;;5092799;22;20431;-66
2022/05/21 08:40:02;;;;;;;9.35;1.88;;;16.20;99.90;;;;;;5086239;28;20058;-66
2022/05/21 08:42:43;;;;;;;10.02;1.85;;;16.30;99.90;;;;;;5089206;28;20024;-65
2022/05/21 08:45:52;;;;;;;4.40;1.45;;;16.30;99.90;;;;;;5088621;28;20493;-66
2022/05/21 08:48:19;;;;;;;11.20;2.30;;;16.20;99.90;;;;;;5051740;28;20056;-66
2022/05/21 08:50:50;;;;;;;7.03;1.80;;;16.00;99.90;;;;;;5062465;28;20385;-68
2022/05/21 08:53:18;;;;;;;10.73;1.70;;;15.90;99.90;;;;;;5063486;28;20024;-66
2022/05/21 08:55:47;;;;;;;6.90;1.90;;;16.00;99.90;;;;;;5064077;28;20470;-65
2022/05/21 08:58:50;;;;;;;12.05;2.70;;;16.00;99.90;;;;;;5069051;28;20036;-67
2022/05/21 09:01:19;;;;;;;12.95;3.28;;;16.10;99.90;;;;;;5060647;28;20048;-67
2022/05/21 09:03:44;;;;;;;6.55;2.15;;;16.10;99.90;;;;;;5065395;28;20024;-68
2022/05/21 09:06:54;;;;;;;9.07;2.03;;;16.10;99.90;;;;;;5072725;28;20026;-67
2022/05/21 09:09:44;;;;;;;4.72;1.48;;;16.20;99.90;;;;;;5046084;28;20079;-67
2022/05/21 09:12:28;;;;;;;6.03;1.50;;;16.30;99.90;;;;;;5064199;28;20038;-67
2022/05/21 09:14:59;;;;;;;5.93;1.30;;;16.50;99.90;;;;;;5072651;28;20067;-68
2022/05/21 09:17:25;;;;;;;6.43;1.65;;;16.70;99.90;;;;;;5064281;28;20445;-68
2022/05/21 09:19:58;;;;;;;7.40;1.35;;;16.90;99.90;;;;;;5068988;28;20029;-68
2022/05/21 09:22:24;;;;;;;5.85;1.25;;;16.70;99.90;;;;;;5069328;28;20047;-67
2022/05/21 09:24:50;;;;;;;7.38;1.50;;;16.90;99.90;;;;;;5066575;28;20053;-68
2022/05/21 09:27:24;;;;;;;10.98;1.92;;;17.00;99.90;;;;;;5065715;28;20033;-67
2022/05/21 09:29:51;;;;;;;1.80;1.20;;;16.90;99.90;;;;;;5065892;28;20490;-68
2022/05/21 09:32:21;;;;;;;6.65;1.42;;;17.00;99.90;;;;;;5067352;28;20178;-68
2022/05/21 09:35:03;;;;;;;5.28;1.50;;;16.90;99.90;;;;;;5069534;28;20074;-67
2022/05/21 09:37:29;;;;;;;11.00;2.17;;;17.10;99.90;;;;;;5057977;28;20479;-65
2022/05/21 09:39:55;;;;;;;9.27;1.38;;;17.20;99.90;;;;;;5060059;28;20069;-67
2022/05/21 09:45:22;;;;;;;6.80;1.50;;;17.30;99.90;;;;;;5068494;28;20443;-67
2022/05/21 09:48:08;;;;;;;6.65;2.00;;;17.50;99.90;;;;;;5062159;28;20402;-67
2022/05/21 09:50:56;;;;;;;7.05;1.25;;;17.50;99.90;;;;;;5055003;28;20044;-68
2022/05/21 09:53:36;;;;;;;4.55;1.35;;;17.90;99.90;;;;;;5060265;28;20104;-68
2022/05/21 09:56:27;;;;;;;4.60;1.60;;;17.90;99.90;;;;;;5066288;28;20115;-68
2022/05/21 09:59:11;;;;;;;3.67;1.60;;;17.90;99.90;;;;;;5053037;28;20082;-68
2022/05/21 10:01:41;;;;;;;6.25;1.50;;;17.90;99.90;;;;;;5059112;28;20029;-66
2022/05/21 10:04:39;;;;;;;3.65;1.52;;;17.90;99.90;;;;;;5062520;28;20021;-67
2022/05/21 10:13:20;;;;;;;4.57;1.52;;;18.20;99.90;;;;;;5065946;28;20114;-68
2022/05/21 10:15:56;;;;;;;5.45;1.75;;;17.90;99.90;;;;;;5059231;28;20052;-67
2022/05/21 10:18:37;;;;;;;8.05;1.60;;;17.80;99.90;;;;;;5064413;28;20081;-67
2022/05/21 10:21:31;;;;;;;6.53;1.70;;;17.60;99.90;;;;;;5065091;28;20794;-68
2022/05/21 10:24:07;;;;;;;9.77;1.70;;;17.90;99.90;;;;;;5030470;28;20040;-67
2022/05/21 10:26:47;;;;;;;3.10;1.48;;;18.10;99.90;;;;;;5060521;28;20078;-67
2022/05/21 10:29:41;;;;;;;11.40;1.50;;;18.20;99.90;;;;;;5065745;28;20046;-67
2022/05/21 10:32:48;;;;;;;6.45;1.33;;;18.60;99.90;;;;;;5063328;28;20093;-67
2022/05/21 10:35:26;;;;;;;13.18;1.83;;;18.70;99.90;;;;;;5062799;28;20784;-67
2022/05/21 10:38:01;;;;;;;9.15;2.05;;;19.00;99.90;;;;;;5044555;28;20036;-67
2022/05/21 10:40:35;;;;;;;10.00;1.80;;;19.00;99.90;;;;;;5057396;28;20113;-67
2022/05/21 10:43:12;;;;;;;12.45;3.25;;;19.00;99.90;;;;;;5059929;28;20037;-67
2022/05/21 10:45:45;;;;;;;6.03;1.67;;;19.00;99.90;;;;;;5052696;28;20478;-68
2022/05/21 10:48:38;;;;;;;8.77;1.30;;;19.10;99.90;;;;;;5057831;28;20401;-67
2022/05/21 10:51:29;;;;;;;5.70;1.00;;;19.50;99.90;;;;;;5058827;28;20030;-68
2022/05/21 10:54:19;;;;;;;9.77;1.88;;;19.50;99.90;;;;;;5062222;28;20580;-67
2022/05/21 10:56:52;;;;;;;3.25;0.93;;;19.80;99.90;;;;;;5063909;28;20051;-68
2022/05/21 10:59:25;;;;;;;8.90;1.15;;;19.70;99.90;;;;;;5063684;28;20025;-67
2022/05/21 11:02:16;;;;;;;6.28;1.33;;;19.60;99.90;;;;;;5059544;28;20025;-67
2022/05/21 11:05:04;;;;;;;5.88;1.60;;;19.30;99.90;;;;;;5061433;28;20028;-67
2022/05/21 11:07:37;;;;;;;6.45;1.77;;;19.10;99.90;;;;;;5060360;28;20494;-67
2022/05/21 11:10:02;;;;;;;6.93;2.70;;;19.10;99.90;;;;;;5060402;28;20055;-67
2022/05/21 11:12:48;;;;;;;4.05;1.52;;;19.00;99.90;;;;;;5055006;28;20489;-67
2022/05/21 11:15:29;;;;;;;6.25;1.63;;;19.00;99.90;;;;;;5060124;28;20025;-67
2022/05/21 11:18:24;;;;;;;8.80;1.50;;;18.80;99.90;;;;;;5061362;28;20040;-68
2022/05/21 11:21:10;;;;;;;4.07;1.38;;;19.10;99.90;;;;;;5061066;28;20017;-67
2022/05/21 11:23:45;;;;;;;5.57;1.58;;;19.50;99.90;;;;;;5048469;28;20179;-68
2022/05/21 11:26:36;;;;;;;7.18;1.90;;;19.50;99.90;;;;;;5060249;28;20029;-67
2022/05/21 11:29:10;;;;;;;8.15;2.13;;;19.80;99.90;;;;;;5059825;28;20032;-68
2022/05/21 11:37:23;;;;;;;8.80;1.10;;;20.40;99.90;;;;;;5061583;28;20178;-68
2022/05/21 11:39:55;;;;;;;9.82;2.47;;;20.30;99.90;;;;;;5064995;28;20027;-68
2022/05/21 11:42:27;;;;;;;5.57;1.40;;;20.20;99.90;;;;;;5065366;28;20036;-68
2022/05/21 11:44:56;;;;;;;8.30;1.25;;;20.20;99.90;;;;;;5065745;28;20491;-68
2022/05/21 11:47:22;;;;;;;7.93;1.75;;;19.80;99.90;;;;;;5065086;28;20738;-67
2022/05/21 11:50:00;;;;;;;5.38;1.80;;;19.80;99.90;;;;;;5064736;28;20025;-68
2022/05/21 11:52:31;;;;;;;6.07;1.63;;;19.80;99.90;;;;;;5064492;28;20039;-68
2022/05/21 11:55:11;;;;;;;4.57;2.38;;;20.20;99.90;;;;;;5064831;28;20036;-67
2022/05/21 11:57:48;;;;;;;7.70;1.92;;;20.50;99.90;;;;;;5058504;28;20052;-68
2022/05/21 12:00:25;;;;;;;6.22;1.58;;;21.10;99.90;;;;;;5060610;28;20032;-68
2022/05/21 12:02:54;;;;;;;7.22;2.38;;;21.20;99.90;;;;;;5064733;28;20028;-68
2022/05/21 12:05:31;;;;;;;5.30;1.60;;;21.20;99.90;;;;;;5064630;28;20029;-68
2022/05/21 12:08:13;;;;;;;3.42;1.65;;;21.60;99.90;;;;;;5065010;28;20047;-68
2022/05/21 12:11:13;;;;;;;7.15;1.33;;;21.30;99.90;;;;;;5047373;28;20497;-68
2022/05/21 12:13:48;;;;;;;8.68;1.70;;;21.30;99.90;;;;;;5065863;28;20025;-67
2022/05/21 12:16:16;;;;;;;3.28;1.42;;;21.20;99.90;;;;;;5064835;28;20023;-68
2022/05/21 12:18:50;;;;;;;10.75;2.03;;;21.00;99.90;;;;;;5064898;28;20035;-68
2022/05/21 12:21:34;;;;;;;4.03;1.27;;;20.50;99.90;;;;;;5047165;28;20035;-69
2022/05/21 12:24:09;;;;;;;3.75;1.67;;;20.10;99.90;;;;;;5065853;28;20111;-67
2022/05/21 12:26:40;;;;;;;8.00;1.58;;;20.30;99.90;;;;;;5065783;28;20514;-68
2022/05/21 12:29:19;;;;;;;10.07;1.80;;;20.10;99.90;;;;;;5063276;28;20056;-69
2022/05/21 12:31:54;;;;;;;10.55;2.13;;;20.40;99.90;;;;;;5065021;28;20094;-67
2022/05/21 12:34:22;;;;;;;7.25;1.40;;;20.60;99.90;;;;;;5065544;28;20033;-67
2022/05/21 12:37:26;;;;;;;6.63;1.25;;;20.70;99.90;;;;;;5064899;28;20025;-68
2022/05/21 12:40:19;;;;;;;9.85;2.22;;;21.00;99.90;;;;;;5048047;28;20662;-67
2022/05/21 12:42:57;;;;;;;5.22;1.40;;;20.80;99.90;;;;;;5068683;28;20040;-68
2022/05/21 12:45:36;;;;;;;5.30;1.55;;;20.70;99.90;;;;;;5069538;28;20035;-68
2022/05/21 12:48:08;;;;;;;5.65;1.67;;;20.50;99.90;;;;;;5068907;28;20733;-68
2022/05/21 12:50:34;;;;;;;4.72;1.42;;;20.30;99.90;;;;;;5068536;28;20087;-67
2022/05/21 12:53:00;;;;;;;7.43;2.05;;;20.00;99.90;;;;;;5068516;28;20075;-68
2022/05/21 12:55:32;;;;;;;6.07;1.92;;;19.80;99.90;;;;;;5069028;28;20025;-67
2022/05/21 12:58:17;;;;;;;4.82;1.27;;;19.80;99.90;;;;;;5068321;28;20059;-66
2022/05/21 13:00:55;;;;;;;5.30;1.25;;;20.40;99.90;;;;;;5047936;28;20025;-68
2022/05/21 13:03:23;;;;;;;10.02;1.42;;;21.00;99.90;;;;;;5068462;28;20417;-68
2022/05/21 13:06:07;;;;;;;5.55;1.63;;;21.10;99.90;;;;;;5068904;28;20032;-68
2022/05/21 13:08:36;;;;;;;8.70;1.63;;;21.10;99.90;;;;;;5068757;28;20017;-67
2022/05/21 13:11:01;;;;;;;5.85;1.33;;;21.20;99.90;;;;;;5068200;28;20049;-68
2022/05/21 13:13:32;;;;;;;5.28;1.98;;;20.80;99.90;;;;;;5068583;28;20570;-67
2022/05/21 13:16:03;;;;;;;8.57;1.75;;;20.60;99.90;;;;;;5069063;28;20048;-66
2022/05/21 13:18:43;;;;;;;4.22;0.98;;;20.40;99.90;;;;;;5068400;28;20028;-68
2022/05/21 13:21:18;;;;;;;5.25;1.30;;;20.50;99.90;;;;;;5068741;28;20028;-67
2022/05/21 13:23:43;;;;;;;;;;;21.20;99.90;;;;;;5069002;28;20020;-67
2022/05/21 13:26:19;;;;;;;4.20;1.27;;;21.20;99.90;;;;;;5068337;28;19919;-68
2022/05/21 13:28:45;;;;;;;9.25;1.45;;;21.00;99.90;;;;;;5068153;28;20028;-68
2022/05/21 13:31:19;;;;;;;4.65;1.38;;;21.00;99.90;;;;;;5067915;28;20033;-68
2022/05/21 13:33:49;;;;;;;3.00;1.23;;;21.20;99.90;;;;;;5067926;28;20064;-69
2022/05/21 13:36:19;;;;;;;5.07;1.00;;;21.20;99.90;;;;;;5068237;28;20072;-66